»·PEaware :: ASA258 KPDX-KSNA

ASA258 :: KPDX-KSNA

FLIGHT INFORMATION

Flight Status: Arrived
Operator:
Alaska Airlines
More flights by this operator :: More flights under this callsign
Pilot: Brad M. (22842)
Aircraft: BOEING 737-700
(B737)
More flights by this aircraft type
Origin: KPDX Portland Intl
United States
Destination: KSNA John Wayne-Orange Co
United States
More flights between these airports :: More routes between these airports
Route: +CASCD2 SMIGE Q9 SUNBE FRA REBRG OHSEA2
File this flight plan on PilotEdge
Remarks:
Altitude:
(Current/Filed)
39,000ft
Speed:
(Current/Filed)
462kts
Departed: 21-Jul-20 05:27 PM
Arrived: 21-Jul-20 07:26 PM
Distance/Time
Traveled:
747nm/1:58
Distance/Time
To Go:
Arrived

Flight Plot

Page will automatically refresh every two minutes.


Map Options




Map Legend


Flown Route
Filed Route
Departure Airport
Arrival Airport
Navaid (VOR, NDB)
Fix

Horizontal Profiles

Position Reports

Time Latitude Longitude Heading Altitude Ground
Speed
21-Jul-20 16:54 45.588356 -122.596346 42 38ft 0kts
21-Jul-20 16:55 45.588356 -122.596346 42 38ft 0kts
21-Jul-20 16:56 45.588356 -122.596346 42 38ft 0kts
21-Jul-20 16:57 45.588356 -122.596346 42 38ft 0kts
21-Jul-20 16:58 45.588356 -122.596346 42 38ft 0kts
21-Jul-20 16:59 45.588356 -122.596346 42 38ft 0kts
21-Jul-20 17:00 45.588356 -122.596346 42 38ft 0kts
21-Jul-20 17:01 45.588356 -122.596346 42 38ft 0kts
21-Jul-20 17:02 45.588356 -122.596346 42 38ft 0kts
21-Jul-20 17:03 45.588356 -122.596346 42 38ft 0kts
21-Jul-20 17:04 45.588356 -122.596346 42 38ft 0kts
21-Jul-20 17:05 45.588356 -122.596346 42 38ft 0kts
21-Jul-20 17:06 45.588356 -122.596346 42 38ft 0kts
21-Jul-20 17:07 45.588356 -122.596346 42 38ft 0kts
21-Jul-20 17:08 45.588356 -122.596346 42 38ft 0kts
21-Jul-20 17:09 45.588356 -122.596346 42 38ft 0kts
21-Jul-20 17:10 45.588356 -122.596346 42 38ft 0kts
21-Jul-20 17:11 45.588356 -122.596346 42 38ft 0kts
21-Jul-20 17:12 45.588356 -122.596346 42 38ft 0kts
21-Jul-20 17:13 45.588356 -122.596346 42 38ft 0kts
21-Jul-20 17:14 45.588356 -122.596346 42 38ft 0kts
21-Jul-20 17:15 45.587842 -122.597051 65 38ft 2kts
21-Jul-20 17:16 45.587886 -122.597443 119 38ft 0kts
21-Jul-20 17:17 45.587886 -122.597443 119 38ft 0kts
21-Jul-20 17:18 45.587886 -122.597443 119 38ft 0kts
21-Jul-20 17:19 45.586980 -122.595129 121 38ft 14kts
21-Jul-20 17:20 45.584673 -122.590931 129 38ft 12kts
21-Jul-20 17:21 45.582966 -122.586980 119 38ft 10kts
21-Jul-20 17:22 45.581713 -122.583778 123 38ft 5kts
21-Jul-20 17:23 45.581490 -122.583585 175 38ft 0kts
21-Jul-20 17:24 45.581489 -122.583585 175 38ft 0kts
21-Jul-20 17:25 45.580800 -122.584605 299 38ft 9kts
21-Jul-20 17:26 45.595363 -122.622831 300 873ft 154kts
21-Jul-20 17:27 45.620374 -122.678318 304 2994ft 194kts
21-Jul-20 17:28 45.652637 -122.758730 299 4865ft 261kts
21-Jul-20 17:29 45.665667 -122.859352 253 8359ft 281kts
21-Jul-20 17:30 45.614276 -122.937142 187 11650ft 304kts
21-Jul-20 17:31 45.531299 -122.876225 137 13079ft 385kts
21-Jul-20 17:32 45.456212 -122.760475 134 15630ft 405kts
21-Jul-20 17:33 45.378718 -122.640236 135 18128ft 419kts
21-Jul-20 17:34 45.298402 -122.515961 134 20297ft 433kts
21-Jul-20 17:35 45.216314 -122.387882 134 22194ft 444kts
21-Jul-20 17:36 45.130957 -122.257345 134 23552ft 455kts
21-Jul-20 17:37 45.036948 -122.137297 150 25068ft 459kts
21-Jul-20 17:38 44.921434 -122.057027 155 26402ft 466kts
21-Jul-20 17:39 44.803515 -121.978338 155 27620ft 473kts
21-Jul-20 17:40 44.683650 -121.897713 154 28804ft 477kts
21-Jul-20 17:41 44.564823 -121.818274 154 30440ft 471kts
21-Jul-20 17:42 44.446581 -121.739704 154 31990ft 468kts
21-Jul-20 17:43 44.328880 -121.661854 154 33499ft 465kts
21-Jul-20 17:44 44.212006 -121.584871 154 34854ft 463kts
21-Jul-20 17:45 44.095659 -121.508329 154 36067ft 461kts
21-Jul-20 17:46 43.979885 -121.432838 155 37149ft 459kts
21-Jul-20 17:47 43.864132 -121.359723 160 38223ft 455kts
21-Jul-20 17:48 43.741129 -121.322607 171 39015ft 453kts
21-Jul-20 17:49 43.617091 -121.295378 171 39023ft 451kts
21-Jul-20 17:50 43.493071 -121.268111 171 39017ft 451kts
21-Jul-20 17:51 43.368852 -121.240700 171 39012ft 451kts
21-Jul-20 17:52 43.245105 -121.213630 171 39009ft 450kts
21-Jul-20 17:53 43.121490 -121.186715 171 39004ft 450kts
21-Jul-20 17:54 42.997845 -121.159893 171 39001ft 449kts
21-Jul-20 17:55 42.874627 -121.133295 171 39008ft 449kts
21-Jul-20 17:56 42.751078 -121.106725 171 39005ft 448kts
21-Jul-20 17:57 42.627876 -121.080331 171 39003ft 448kts
21-Jul-20 17:58 42.504834 -121.054076 171 39002ft 447kts
21-Jul-20 17:59 42.382034 -121.027987 170 39003ft 447kts
21-Jul-20 18:00 42.259296 -121.002009 170 38993ft 446kts
21-Jul-20 18:01 42.136240 -120.976057 170 38992ft 446kts
21-Jul-20 18:02 42.013510 -120.950290 170 38983ft 445kts
21-Jul-20 18:03 41.891435 -120.924719 170 38988ft 445kts
21-Jul-20 18:04 41.768905 -120.899206 171 38988ft 445kts
21-Jul-20 18:05 41.646502 -120.873797 171 38987ft 445kts
21-Jul-20 18:06 41.524484 -120.848560 171 38985ft 445kts
21-Jul-20 18:07 41.401954 -120.823336 171 38985ft 445kts
21-Jul-20 18:08 41.279561 -120.798142 171 38975ft 445kts
21-Jul-20 18:09 41.157005 -120.773106 171 38963ft 445kts
21-Jul-20 18:10 41.034841 -120.748271 171 38966ft 445kts
21-Jul-20 18:11 40.913404 -120.714883 166 38979ft 445kts
21-Jul-20 18:12 40.792843 -120.676843 167 38998ft 445kts
21-Jul-20 18:13 40.672317 -120.639581 167 39012ft 445kts
21-Jul-20 18:14 40.551592 -120.602176 167 39010ft 445kts
21-Jul-20 18:15 40.430174 -120.568744 180 39001ft 445kts
21-Jul-20 18:16 40.307130 -120.585039 186 39009ft 445kts
21-Jul-20 18:17 40.183778 -120.593912 179 39011ft 445kts
21-Jul-20 18:18 40.060004 -120.591816 182 39015ft 444kts
21-Jul-20 18:19 39.937368 -120.614721 189 39030ft 445kts
21-Jul-20 18:20 39.815111 -120.640852 189 39064ft 445kts
21-Jul-20 18:21 39.692456 -120.666942 189 39081ft 447kts
21-Jul-20 18:22 39.569968 -120.693112 189 39104ft 447kts
21-Jul-20 18:23 39.447075 -120.719162 189 39095ft 447kts
21-Jul-20 18:24 39.323486 -120.745244 189 39073ft 454kts
21-Jul-20 18:25 39.199827 -120.771248 190 39118ft 449kts
21-Jul-20 18:26 39.076295 -120.797127 190 39058ft 449kts
21-Jul-20 18:27 38.952417 -120.822997 190 38999ft 450kts
21-Jul-20 18:29 38.829001 -120.848676 190 38933ft 450kts
21-Jul-20 18:30 38.704836 -120.874419 190 38906ft 451kts
21-Jul-20 18:31 38.580868 -120.900026 190 38885ft 451kts
21-Jul-20 18:32 38.456874 -120.925543 190 38863ft 451kts
21-Jul-20 18:33 38.332659 -120.951168 190 38863ft 452kts
21-Jul-20 18:34 38.208583 -120.976536 190 38865ft 452kts
21-Jul-20 18:35 38.083486 -120.993999 174 38846ft 456kts
21-Jul-20 18:36 37.966266 -120.930859 153 38842ft 464kts
21-Jul-20 18:37 37.851603 -120.852316 154 38836ft 468kts
21-Jul-20 18:38 37.736988 -120.774355 154 38823ft 468kts
21-Jul-20 18:39 37.622421 -120.696561 154 38824ft 467kts
21-Jul-20 18:40 37.507422 -120.619005 154 38826ft 468kts
21-Jul-20 18:41 37.392309 -120.541681 154 38819ft 468kts
21-Jul-20 18:42 37.277236 -120.464629 154 38811ft 469kts
21-Jul-20 18:43 37.161858 -120.387697 155 38816ft 470kts
21-Jul-20 18:44 37.045800 -120.310558 155 38824ft 472kts
21-Jul-20 18:45 36.929767 -120.233702 155 38820ft 473kts
21-Jul-20 18:45 36.832143 -120.169245 155 38818ft 475kts
21-Jul-20 18:46 36.715175 -120.092264 155 38814ft 476kts
21-Jul-20 18:48 36.578266 -120.002494 156 38809ft 477kts
21-Jul-20 18:48 36.480236 -119.938439 156 38804ft 479kts
21-Jul-20 18:49 36.362060 -119.861462 156 38802ft 479kts
21-Jul-20 18:50 36.243942 -119.784633 156 38804ft 480kts
21-Jul-20 18:51 36.125367 -119.707920 156 38807ft 480kts
21-Jul-20 18:52 36.005882 -119.634365 166 38803ft 474kts
21-Jul-20 18:53 35.878097 -119.635412 194 38807ft 458kts
21-Jul-20 18:54 35.752288 -119.661438 193 38807ft 458kts
21-Jul-20 18:55 35.624465 -119.660885 166 38807ft 476kts
21-Jul-20 18:56 35.502362 -119.594974 159 38804ft 481kts
21-Jul-20 18:57 35.380126 -119.527318 159 38826ft 482kts
21-Jul-20 18:58 35.257591 -119.459738 159 38853ft 483kts
21-Jul-20 18:59 35.134513 -119.392302 159 38867ft 485kts
21-Jul-20 19:00 35.011375 -119.324991 159 38893ft 485kts
21-Jul-20 19:01 34.887817 -119.257779 159 38886ft 487kts
21-Jul-20 19:02 34.763236 -119.190360 159 36118ft 490kts
21-Jul-20 19:03 34.640927 -119.115149 155 32708ft 496kts
21-Jul-20 19:04 34.518437 -119.036621 154 29074ft 494kts
21-Jul-20 19:05 34.403974 -118.961843 154 28039ft 451kts
21-Jul-20 19:06 34.295601 -118.889916 153 25804ft 436kts
21-Jul-20 19:07 34.188234 -118.828933 164 23483ft 418kts
21-Jul-20 19:08 34.079125 -118.786579 163 21195ft 404kts
21-Jul-20 19:09 33.973855 -118.745770 163 18956ft 390kts
21-Jul-20 19:10 33.872104 -118.706434 163 16738ft 378kts
21-Jul-20 19:11 33.773869 -118.668590 163 14605ft 363kts
21-Jul-20 19:12 33.679489 -118.634294 164 12824ft 345kts
21-Jul-20 19:13 33.592972 -118.594700 137 11171ft 326kts
21-Jul-20 19:14 33.578342 -118.493874 80 9433ft 316kts
21-Jul-20 19:15 33.594038 -118.393434 80 7800ft 294kts
21-Jul-20 19:16 33.608593 -118.300014 79 6057ft 280kts
21-Jul-20 19:17 33.623244 -118.208503 79 5025ft 281kts
21-Jul-20 19:18 33.637770 -118.115922 79 4407ft 277kts
21-Jul-20 19:19 33.651121 -118.028907 80 3081ft 248kts
21-Jul-20 19:20 33.684310 -117.966348 33 3034ft 211kts
21-Jul-20 19:21 33.733820 -117.928292 31 2941ft 208kts
21-Jul-20 19:22 33.747937 -117.876877 125 1783ft 176kts
21-Jul-20 19:23 33.714536 -117.852532 179 952ft 135kts
21-Jul-20 19:24 33.680217 -117.865989 208 74ft 124kts
21-Jul-20 19:25 33.669150 -117.871624 132 64ft 13kts
21-Jul-20 19:26 33.670257 -117.869703 39 64ft 6kts
21-Jul-20 19:27 33.673109 -117.867243 47 64ft 11kts
21-Jul-20 19:28 33.675169 -117.865810 27 64ft 7kts
21-Jul-20 19:29 33.678437 -117.863753 27 64ft 17kts
21-Jul-20 19:30 33.679197 -117.863274 27 64ft 0kts
21-Jul-20 19:31 33.679307 -117.863202 28 64ft 9kts
21-Jul-20 19:32 33.681197 -117.861495 115 64ft 5kts
21-Jul-20 19:33 33.681072 -117.861200 117 64ft 0kts
21-Jul-20 19:34 33.681072 -117.861200 117 64ft 0kts
21-Jul-20 19:35 33.681072 -117.861200 117 64ft 0kts
21-Jul-20 19:36 33.681072 -117.861200 117 64ft 0kts
21-Jul-20 19:37 33.681072 -117.861200 117 64ft 0kts

Navigation Log

Ident Type
Flight plan parsing failed, navigation log unavailable